Time;durP1;ratioP1;P1;durP2;ratioP2;P2;SDS_P1;SDS_P2;PMS_P1;PMS_P2;Temp;Humidity;BMP_temperature;BMP_pressure;BME280_temperature;BME280_humidity;BME280_pressure;Samples;Min_cycle;Max_cycle;Signal;HPM_P1;HPM_P2
2022/04/18 00:01:41;;;;;;;4.83;4.07;;;;;;;11.94;37.59;97764.41;5066160;28;20174;-70
2022/04/18 00:04:06;;;;;;;5.10;4.20;;;;;;;11.91;37.52;97762.06;5074730;28;20680;-70
2022/04/18 00:06:35;;;;;;;8.17;3.87;;;;;;;11.75;37.83;97760.91;5074556;28;20190;-71
2022/04/18 00:09:01;;;;;;;5.90;4.17;;;;;;;11.63;38.04;97756.81;5074371;28;20257;-70
2022/04/18 00:11:26;;;;;;;4.87;4.37;;;;;;;11.52;38.56;97755.22;5074270;28;20433;-71
2022/04/18 00:13:52;;;;;;;9.53;4.40;;;;;;;11.52;38.44;97756.03;5056814;28;20198;-71
2022/04/18 00:16:17;;;;;;;6.47;4.20;;;;;;;11.44;38.67;97736.72;5078295;28;20641;-72
2022/04/18 00:18:43;;;;;;;6.10;4.40;;;;;;;11.27;39.03;97746.19;5074350;28;20178;-71
2022/04/18 00:21:08;;;;;;;4.93;4.10;;;;;;;11.39;38.96;97745.03;5074476;28;20178;-71
2022/04/18 00:23:34;;;;;;;5.30;4.80;;;;;;;11.46;39.00;97746.13;5074000;28;20242;-72
2022/04/18 00:25:59;;;;;;;6.93;4.90;;;;;;;11.47;39.03;97745.13;5074364;28;20184;-71
2022/04/18 00:28:25;;;;;;;4.90;4.40;;;;;;;11.48;38.88;97746.78;5075518;28;20183;-71
2022/04/18 00:30:51;;;;;;;9.73;4.40;;;;;;;11.33;39.00;97750.88;5081310;28;20229;-70
2022/04/18 00:33:17;;;;;;;5.30;4.23;;;;;;;11.22;39.63;97751.88;5072978;28;20206;-70
2022/04/18 00:35:42;;;;;;;8.03;4.20;;;;;;;11.26;39.50;97744.53;5074286;28;20439;-72
2022/04/18 00:38:08;;;;;;;4.90;4.00;;;;;;;11.33;39.06;97737.75;5073981;28;20689;-71
2022/04/18 00:40:33;;;;;;;9.13;4.37;;;;;;;11.20;38.97;97746.78;5073582;28;20194;-69
2022/04/18 00:43:03;;;;;;;8.90;4.43;;;;;;;11.27;38.80;97743.56;5074157;28;20194;-71
2022/04/18 00:45:29;;;;;;;5.17;4.67;;;;;;;11.29;38.87;97739.00;5076492;28;20223;-71
2022/04/18 00:47:54;;;;;;;8.87;5.10;;;;;;;11.25;38.56;97727.13;5073937;28;20947;-70
2022/04/18 00:50:20;;;;;;;5.70;5.00;;;;;;;11.27;38.69;97726.03;5074999;28;20706;-71
2022/04/18 00:52:46;;;;;;;6.47;4.30;;;;;;;11.36;38.63;97730.41;5073911;28;20209;-70
2022/04/18 00:55:12;;;;;;;8.97;4.87;;;;;;;11.17;39.11;97733.94;5072670;28;20190;-71
2022/04/18 00:57:37;;;;;;;7.40;4.40;;;;;;;11.13;39.49;97724.69;5072375;28;20566;-71
2022/04/18 01:00:04;;;;;;;7.53;4.10;;;;;;;10.98;39.37;97726.09;5074593;28;20187;-71
2022/04/18 01:02:29;;;;;;;6.30;4.20;;;;;;;10.86;40.31;97722.84;5073897;28;20553;-72
2022/04/18 01:04:55;;;;;;;9.97;4.43;;;;;;;10.86;39.97;97720.22;5055797;28;20439;-72
2022/04/18 01:07:21;;;;;;;6.90;4.40;;;;;;;10.88;39.97;97719.09;5073236;28;20179;-72
2022/04/18 01:09:46;;;;;;;4.83;4.33;;;;;;;10.86;40.12;97717.59;5072743;28;20187;-71
2022/04/18 01:12:12;;;;;;;5.30;4.30;;;;;;;10.78;40.24;97710.41;5073604;28;20189;-72
2022/04/18 01:14:37;;;;;;;9.33;4.57;;;;;;;10.66;40.20;97711.56;5073064;28;20193;-72
2022/04/18 01:17:03;;;;;;;6.73;4.60;;;;;;;10.67;40.70;97708.78;5059039;28;20229;-72
2022/04/18 01:19:28;;;;;;;5.77;5.17;;;;;;;10.72;40.68;97716.22;5071531;28;20815;-71
2022/04/18 01:21:54;;;;;;;7.10;4.77;;;;;;;10.63;40.29;97709.19;5054944;28;20178;-70
2022/04/18 01:29:49;;;;;;;5.93;4.80;;;;;;;10.51;41.12;97708.53;5065759;28;20523;-70
2022/04/18 01:32:14;;;;;;;5.40;4.00;;;;;;;10.50;40.89;97701.66;5071885;28;20527;-71
2022/04/18 01:34:40;;;;;;;8.00;5.10;;;;;;;10.39;40.83;97689.50;5072599;28;20186;-70
2022/04/18 01:37:05;;;;;;;6.60;4.40;;;;;;;10.36;41.27;97694.97;5072791;28;20222;-71
2022/04/18 01:39:31;;;;;;;6.10;5.50;;;;;;;10.44;40.92;97689.94;5069547;28;20195;-70
2022/04/18 01:41:56;;;;;;;7.17;4.33;;;;;;;10.42;40.98;97684.81;5070211;28;20186;-71
2022/04/18 01:44:22;;;;;;;8.10;4.60;;;;;;;10.41;41.42;97685.78;5072597;28;20210;-71
2022/04/18 01:46:47;;;;;;;7.83;4.90;;;;;;;10.27;41.19;97687.00;5072791;28;20651;-71
2022/04/18 01:49:13;;;;;;;5.40;4.83;;;;;;;10.30;41.26;97686.72;5073932;28;20193;-72
2022/04/18 01:51:38;;;;;;;4.97;4.47;;;;;;;10.18;41.35;97679.97;5072499;28;20814;-70
2022/04/18 01:54:04;;;;;;;13.10;4.60;;;;;;;10.11;41.58;97686.72;5054518;28;20210;-73
2022/04/18 01:56:29;;;;;;;6.47;4.23;;;;;;;9.93;41.79;97690.03;5072410;28;20182;-70
2022/04/18 01:58:55;;;;;;;7.80;4.50;;;;;;;9.95;42.33;97689.88;5072117;28;20197;-71
2022/04/18 02:01:20;;;;;;;7.27;5.20;;;;;;;10.10;41.60;97691.16;5075383;28;20186;-72
2022/04/18 02:03:46;;;;;;;6.33;5.23;;;;;;;10.11;41.86;97691.97;5072037;28;20208;-70
2022/04/18 02:06:11;;;;;;;5.47;4.50;;;;;;;9.98;41.82;97687.00;5072409;28;20190;-71
2022/04/18 02:08:37;;;;;;;7.57;4.90;;;;;;;10.04;42.00;97680.38;5072041;28;20179;-71
2022/04/18 02:11:04;;;;;;;4.83;4.43;;;;;;;9.93;41.63;97686.56;5077506;28;20231;-71
2022/04/18 02:13:30;;;;;;;6.03;4.87;;;;;;;9.91;41.67;97681.47;5073485;28;20318;-72
2022/04/18 02:15:57;;;;;;;5.30;4.77;;;;;;;9.89;41.61;97683.41;5079754;28;20433;-72
2022/04/18 02:18:23;;;;;;;6.10;4.87;;;;;;;9.82;42.27;97677.06;5070894;28;20205;-72
2022/04/18 02:20:49;;;;;;;5.70;4.20;;;;;;;9.77;42.23;97674.03;5071194;28;20432;-73
2022/04/18 02:23:15;;;;;;;5.70;5.10;;;;;;;9.80;42.26;97663.28;5071936;28;20284;-71
2022/04/18 02:25:40;;;;;;;5.73;4.60;;;;;;;9.82;41.92;97677.88;5071860;28;20190;-71
2022/04/18 02:28:07;;;;;;;7.83;4.90;;;;;;;9.68;42.89;97666.03;5071731;28;20178;-71
2022/04/18 02:30:32;;;;;;;6.17;4.87;;;;;;;9.80;42.23;97665.91;5073563;28;20228;-72
2022/04/18 02:32:59;;;;;;;5.60;4.67;;;;;;;9.75;42.85;97665.47;5073929;28;20498;-72
2022/04/18 02:35:25;;;;;;;5.60;4.83;;;;;;;9.67;42.66;97659.13;5071804;28;20209;-71
2022/04/18 02:37:52;;;;;;;13.30;7.30;;;;;;;9.78;42.76;97665.22;5070334;28;21010;-68
2022/04/18 02:40:18;;;;;;;12.00;7.40;;;;;;;9.74;42.37;97658.56;5070964;28;20536;-70
2022/04/18 02:42:43;;;;;;;8.20;5.90;;;;;;;9.62;42.91;97663.94;5070257;28;20879;-70
2022/04/18 02:45:14;;;;;;;10.13;6.43;;;;;;;9.37;43.82;97662.66;5071435;28;20447;-70
2022/04/18 02:47:40;;;;;;;8.50;5.93;;;;;;;9.55;43.39;97657.59;5071205;28;20182;-71
2022/04/18 02:50:06;;;;;;;8.43;6.27;;;;;;;9.46;42.87;97655.75;5072855;28;20444;-71
2022/04/18 02:52:32;;;;;;;8.20;5.47;;;;;;;9.52;43.22;97650.00;5071351;28;20436;-70
2022/04/18 02:54:58;;;;;;;6.90;5.70;;;;;;;9.53;43.19;97649.88;5071300;28;20472;-70
2022/04/18 02:57:23;;;;;;;7.60;5.07;;;;;;;9.53;43.51;97646.44;5070983;28;20205;-71
2022/04/18 02:59:48;;;;;;;6.80;5.00;;;;;;;9.52;43.10;97642.97;5073516;28;20190;-71
2022/04/18 03:02:14;;;;;;;8.83;5.60;;;;;;;9.43;43.52;97643.78;5071681;28;20182;-71
2022/04/18 03:04:39;;;;;;;6.03;4.47;;;;;;;9.38;43.33;97646.81;5071229;28;20553;-72
2022/04/18 03:07:05;;;;;;;9.77;5.10;;;;;;;9.45;43.09;97643.66;5070142;28;20316;-69
2022/04/18 03:09:31;;;;;;;6.60;5.67;;;;;;;9.31;43.47;97640.47;5069436;28;20261;-71
2022/04/18 03:11:57;;;;;;;14.30;6.50;;;;;;;9.23;43.47;97640.28;5071761;28;20198;-73
2022/04/18 03:14:23;;;;;;;7.67;6.40;;;;;;;9.24;43.77;97641.13;5070925;28;20562;-73
2022/04/18 03:16:49;;;;;;;9.63;7.10;;;;;;;9.31;43.69;97637.84;5074882;28;20206;-73
2022/04/18 03:19:14;;;;;;;8.60;6.30;;;;;;;9.26;43.46;97634.81;5078106;28;20436;-73
2022/04/18 03:21:40;;;;;;;9.87;6.67;;;;;;;9.16;43.53;97631.34;5070963;28;20261;-72
2022/04/18 03:24:06;;;;;;;9.03;6.83;;;;;;;9.13;44.43;97626.38;5070943;28;20292;-71
2022/04/18 03:26:32;;;;;;;10.50;7.33;;;;;;;9.16;43.64;97636.56;5070694;28;20935;-71
2022/04/18 03:28:57;;;;;;;9.53;6.87;;;;;;;9.17;43.93;97631.19;5070690;28;20189;-71
2022/04/18 03:31:23;;;;;;;9.43;6.57;;;;;;;9.17;43.67;97633.81;5070853;28;20181;-71
2022/04/18 03:33:48;;;;;;;8.80;6.63;;;;;;;9.21;43.96;97626.50;5052792;28;20206;-71
2022/04/18 03:41:42;;;;;;;9.60;6.73;;;;;;;9.01;44.06;97631.69;5077846;28;20421;-70
2022/04/18 03:44:09;;;;;;;8.50;6.47;;;;;;;9.04;44.27;97626.22;5068489;28;21020;-74
2022/04/18 03:46:34;;;;;;;7.07;5.77;;;;;;;9.06;44.33;97618.22;5068843;28;20258;-71
2022/04/18 03:49:00;;;;;;;7.63;5.30;;;;;;;9.11;43.84;97620.44;5051040;28;20444;-72
2022/04/18 03:51:25;;;;;;;10.00;6.03;;;;;;;9.02;43.87;97617.66;5079346;28;20190;-71
2022/04/18 03:53:51;;;;;;;7.23;5.30;;;;;;;9.02;44.22;97629.91;5075563;28;20201;-72
2022/04/18 03:56:16;;;;;;;7.23;5.13;;;;;;;8.96;44.54;97626.03;5070731;28;20267;-71
2022/04/18 03:58:42;;;;;;;6.37;5.10;;;;;;;8.90;44.34;97630.00;5090445;28;20200;-69
2022/04/18 04:01:07;;;;;;;7.30;5.63;;;;;;;8.92;44.52;97627.25;5086731;28;20186;-71
2022/04/18 04:03:33;;;;;;;10.03;5.73;;;;;;;8.89;44.69;97624.91;5083854;28;20238;-70
2022/04/18 04:05:58;;;;;;;9.17;5.40;;;;;;;8.68;44.63;97614.50;5085948;28;20185;-70
2022/04/18 04:08:24;;;;;;;7.17;5.60;;;;;;;8.73;44.56;97620.97;5090534;28;20205;-71
2022/04/18 04:10:50;;;;;;;8.00;6.13;;;;;;;8.86;44.76;97627.78;5089123;28;20197;-70
2022/04/18 04:13:16;;;;;;;8.90;5.90;;;;;;;8.88;44.32;97620.63;5080146;28;20565;-70
2022/04/18 04:15:42;;;;;;;6.67;5.37;;;;;;;8.84;44.64;97624.47;5075258;28;20426;-70
2022/04/18 04:18:07;;;;;;;7.30;6.07;;;;;;;8.72;45.05;97627.16;5079661;28;20441;-69
2022/04/18 04:20:33;;;;;;;7.83;5.60;;;;;;;8.71;44.85;97625.50;5089893;28;20197;-70
2022/04/18 04:22:58;;;;;;;6.50;5.80;;;;;;;8.73;44.70;97617.56;5073760;28;20217;-69
2022/04/18 04:25:24;;;;;;;7.30;5.13;;;;;;;8.64;44.76;97621.75;5093515;28;20182;-70
2022/04/18 04:27:49;;;;;;;9.67;5.60;;;;;;;8.72;44.82;97623.72;5082111;28;20194;-70
2022/04/18 04:30:15;;;;;;;7.43;5.80;;;;;;;8.58;45.43;97619.66;5097053;28;20198;-70
2022/04/18 04:32:41;;;;;;;6.63;5.53;;;;;;;8.66;44.82;97617.25;5084834;28;20206;-70
2022/04/18 04:35:06;;;;;;;9.00;5.60;;;;;;;8.73;45.10;97615.75;5087144;28;20186;-71
2022/04/18 04:37:32;;;;;;;9.97;6.10;;;;;;;8.81;45.00;97611.69;5088206;28;20296;-70
2022/04/18 04:39:58;;;;;;;7.20;5.40;;;;;;;8.76;44.58;97612.03;5085427;28;20247;-71
2022/04/18 04:42:23;;;;;;;10.27;5.83;;;;;;;8.67;44.61;97621.50;5093010;28;20186;-71
2022/04/18 04:44:49;;;;;;;8.13;4.60;;;;;;;8.72;44.35;97611.47;5083357;28;20209;-70
2022/04/18 04:47:14;;;;;;;5.50;5.00;;;;;;;8.83;44.79;97612.34;5094878;28;20188;-71
2022/04/18 04:49:39;;;;;;;6.70;5.30;;;;;;;8.71;45.14;97612.44;5083189;28;20562;-69
2022/04/18 04:52:06;;;;;;;10.30;5.43;;;;;;;8.76;45.40;97609.44;5094421;28;20184;-70
2022/04/18 04:54:32;;;;;;;5.67;4.90;;;;;;;8.70;45.08;97608.16;5071661;28;20284;-70
2022/04/18 04:56:57;;;;;;;7.50;5.60;;;;;;;8.66;44.79;97598.94;5096240;28;20451;-70
2022/04/18 04:59:23;;;;;;;9.37;6.27;;;;;;;8.67;45.35;97603.22;5089980;28;20436;-70
2022/04/18 05:01:48;;;;;;;7.60;5.23;;;;;;;8.69;44.99;97601.31;5086932;28;20181;-70
2022/04/18 05:04:14;;;;;;;7.07;5.57;;;;;;;8.72;45.30;97603.63;5081213;28;20205;-70
2022/04/18 05:06:40;;;;;;;8.50;5.60;;;;;;;8.69;45.59;97610.91;5093150;28;20557;-71
2022/04/18 05:09:06;;;;;;;7.30;6.10;;;;;;;8.70;45.47;97607.34;5093040;28;20177;-70
2022/04/18 05:11:32;;;;;;;7.93;6.33;;;;;;;8.82;45.62;97608.91;5080440;28;20531;-71
2022/04/18 05:13:58;;;;;;;7.10;6.40;;;;;;;8.79;45.79;97610.97;5093045;28;20474;-71
2022/04/18 05:16:24;;;;;;;6.93;5.93;;;;;;;8.90;45.13;97600.41;5091675;28;20424;-70
2022/04/18 05:18:50;;;;;;;7.00;5.47;;;;;;;8.94;45.50;97601.81;5083811;28;20779;-71
2022/04/18 05:21:15;;;;;;;7.20;5.37;;;;;;;8.96;45.57;97605.09;5080745;28;20518;-68
2022/04/18 05:23:41;;;;;;;6.33;5.37;;;;;;;9.11;45.67;97609.97;5087215;28;20213;-71
2022/04/18 05:26:06;;;;;;;5.63;5.03;;;;;;;9.18;44.74;97598.84;5088356;28;20186;-70
2022/04/18 05:28:32;;;;;;;10.77;6.77;;;;;;;9.24;45.04;97610.56;5092623;28;20178;-71
2022/04/18 05:30:58;;;;;;;6.33;5.53;;;;;;;9.27;45.31;97599.00;5060629;28;20245;-70
2022/04/18 05:33:23;;;;;;;11.63;5.70;;;;;;;9.41;45.50;97598.63;5085801;28;20616;-70
2022/04/18 05:35:49;;;;;;;8.47;5.40;;;;;;;9.49;45.45;97605.78;5085841;28;20182;-69
2022/04/18 05:38:15;;;;;;;6.80;5.27;;;;;;;9.55;45.34;97600.03;5092645;28;20209;-68
2022/04/18 05:40:41;;;;;;;11.10;5.00;;;;;;;9.73;44.48;97608.03;5080778;28;20425;-71
2022/04/18 05:43:08;;;;;;;6.37;5.17;;;;;;;9.91;42.32;97607.31;5076680;28;20198;-70
2022/04/18 05:45:34;;;;;;;8.07;5.57;;;;;;;10.04;43.43;97613.13;5089954;28;20667;-69
2022/04/18 05:48:00;;;;;;;7.77;5.30;;;;;;;10.08;43.26;97613.69;5070052;28;20437;-70
2022/04/18 05:50:25;;;;;;;9.20;6.67;;;;;;;10.19;43.57;97613.53;5091622;28;20427;-69
2022/04/18 05:52:51;;;;;;;13.77;8.57;;;;;;;10.26;43.79;97606.75;5091442;28;20202;-69
2022/04/18 05:55:16;;;;;;;19.03;10.50;;;;;;;10.41;43.66;97608.97;5080634;28;20186;-69
2022/04/18 05:57:42;;;;;;;20.20;12.20;;;;;;;10.65;43.48;97608.47;5092807;28;20213;-69
2022/04/18 06:00:08;;;;;;;14.30;10.20;;;;;;;10.83;42.60;97618.22;5089919;28;20243;-69
2022/04/18 06:02:33;;;;;;;8.73;6.37;;;;;;;11.02;40.04;97605.03;5092308;28;20284;-69
2022/04/18 06:04:59;;;;;;;5.80;4.80;;;;;;;11.14;38.80;97600.41;5092599;28;21227;-68
2022/04/18 06:07:24;;;;;;;7.20;5.00;;;;;;;11.40;38.18;97604.16;5092417;28;20178;-68
2022/04/18 06:09:50;;;;;;;6.10;5.30;;;;;;;11.60;38.75;97610.91;5092636;28;20186;-69
2022/04/18 06:12:20;;;;;;;8.67;5.30;;;;;;;11.77;38.72;97609.28;5092604;28;20196;-70
2022/04/18 06:14:45;;;;;;;6.07;5.23;;;;;;;11.98;39.17;97602.91;5092390;28;20209;-68
2022/04/18 06:17:11;;;;;;;5.60;4.80;;;;;;;12.21;38.35;97607.72;5086991;28;20810;-70
2022/04/18 06:19:36;;;;;;;4.63;4.13;;;;;;;12.37;36.10;97607.81;5083141;28;20189;-69
2022/04/18 06:22:03;;;;;;;10.30;4.57;;;;;;;12.51;35.59;97601.19;5074152;28;20671;-69
2022/04/18 06:24:29;;;;;;;8.37;4.00;;;;;;;12.63;34.53;97606.16;5091835;28;20197;-69
2022/04/18 06:26:54;;;;;;;6.90;4.03;;;;;;;12.82;34.56;97605.13;5083170;28;20435;-69
2022/04/18 06:29:20;;;;;;;5.03;4.20;;;;;;;12.95;33.65;97602.03;5075602;28;20197;-68
2022/04/18 06:31:46;;;;;;;5.87;4.37;;;;;;;13.17;33.41;97592.75;5091917;28;20181;-69
2022/04/18 06:34:12;;;;;;;4.37;3.80;;;;;;;13.34;32.95;97597.13;5092011;28;20578;-68
2022/04/18 06:36:38;;;;;;;5.33;3.60;;;;;;;13.57;33.34;97587.78;5092919;28;20436;-69
2022/04/18 06:39:04;;;;;;;10.20;4.03;;;;;;;13.70;32.22;97592.59;5087562;28;20436;-69
2022/04/18 06:41:30;;;;;;;5.03;4.03;;;;;;;13.78;32.07;97582.91;5070227;28;20186;-69
2022/04/18 06:43:55;;;;;;;4.70;4.30;;;;;;;14.01;32.13;97581.41;5083107;28;20536;-67
2022/04/18 06:46:21;;;;;;;4.47;4.00;;;;;;;13.90;31.13;97578.13;5088557;28;20215;-67
2022/04/18 06:48:46;;;;;;;7.90;3.90;;;;;;;14.16;31.79;97581.59;5092894;28;20177;-67
2022/04/18 06:51:11;;;;;;;4.70;4.07;;;;;;;14.23;31.14;97577.28;5091700;28;20186;-67
2022/04/18 06:53:37;;;;;;;7.33;4.10;;;;;;;14.42;30.93;97584.84;5091339;28;20208;-70
2022/04/18 06:58:54;;;;;;;9.50;4.53;;;;;;;14.71;30.58;97583.47;5082368;28;20221;-70
2022/04/18 07:01:20;;;;;;;5.07;4.03;;;;;;;14.89;31.55;97577.97;5088586;28;20442;-69
2022/04/18 07:03:45;;;;;;;10.33;3.50;;;;;;;14.99;31.21;97582.25;5091707;28;20295;-70
2022/04/18 07:06:11;;;;;;;5.53;4.30;;;;;;;15.15;29.99;97582.16;5054917;28;20186;-69
2022/04/18 07:08:37;;;;;;;5.87;4.60;;;;;;;15.21;30.37;97570.09;5087357;28;20205;-70
2022/04/18 07:11:03;;;;;;;6.40;4.33;;;;;;;15.23;29.63;97573.38;5082091;28;20758;-69
2022/04/18 07:13:28;;;;;;;6.00;4.50;;;;;;;15.03;29.56;97580.91;5091008;28;20534;-70
2022/04/18 07:15:54;;;;;;;5.83;4.70;;;;;;;15.12;30.28;97574.56;5085452;28;20281;-69
2022/04/18 07:18:19;;;;;;;4.70;4.10;;;;;;;15.01;29.72;97585.53;5091057;28;20274;-69
2022/04/18 07:20:45;;;;;;;8.50;4.73;;;;;;;15.13;30.63;97578.88;5089178;28;20182;-71
2022/04/18 07:23:11;;;;;;;9.30;4.70;;;;;;;15.20;29.69;97585.13;5085726;28;20240;-70
2022/04/18 07:25:36;;;;;;;4.40;4.00;;;;;;;15.03;29.91;97584.38;5076086;28;20189;-69
2022/04/18 07:28:03;;;;;;;4.73;3.77;;;;;;;15.50;30.54;97579.97;5080629;28;20177;-70
2022/04/18 07:30:30;;;;;;;6.37;4.40;;;;;;;15.71;29.58;97575.06;5090777;28;20178;-69
2022/04/18 07:32:56;;;;;;;6.03;4.43;;;;;;;15.71;29.23;97572.44;5091237;28;20455;-70
2022/04/18 07:35:21;;;;;;;5.83;4.23;;;;;;;15.97;29.55;97574.75;5090966;28;20428;-69
2022/04/18 07:40:31;;;;;;;4.70;4.20;;;;;;;16.28;28.50;97577.28;5083558;28;20193;-70
2022/04/18 07:42:56;;;;;;;6.30;4.97;;;;;;;16.43;28.22;97579.94;5091162;28;20518;-69
2022/04/18 07:45:22;;;;;;;6.00;3.70;;;;;;;16.43;28.60;97574.66;5090988;28;20653;-69
2022/04/18 07:47:48;;;;;;;5.20;4.50;;;;;;;16.50;28.20;97576.59;5081684;28;20668;-69
2022/04/18 07:50:13;;;;;;;8.90;6.40;;;;;;;16.58;28.76;97571.22;5077235;28;20182;-69
2022/04/18 07:52:39;;;;;;;56.40;32.10;;;;;;;17.00;29.67;97580.38;5090714;28;20267;-70
2022/04/18 07:55:05;;;;;;;13.73;7.80;;;;;;;17.43;29.69;97586.75;5086429;28;20182;-70
2022/04/18 07:57:32;;;;;;;44.27;28.20;;;;;;;17.70;28.87;97587.03;5086552;28;20205;-71
2022/04/18 07:59:57;;;;;;;16.63;11.83;;;;;;;18.07;29.21;97577.22;5088330;28;20432;-70
2022/04/18 08:02:25;;;;;;;7.40;6.27;;;;;;;18.14;26.34;97582.56;5090522;28;20459;-71
2022/04/18 08:04:51;;;;;;;9.20;6.70;;;;;;;18.19;26.14;97583.63;5091147;28;20260;-71
2022/04/18 08:07:16;;;;;;;22.23;16.70;;;;;;;18.38;27.11;97576.84;5089413;28;20909;-71
2022/04/18 08:09:42;;;;;;;12.83;9.63;;;;;;;18.65;27.00;97578.88;5090703;28;20189;-71
2022/04/18 08:12:11;;;;;;;5.77;4.60;;;;;;;18.80;25.70;97574.25;5089707;28;20204;-70
2022/04/18 08:14:38;;;;;;;5.07;4.23;;;;;;;18.97;25.43;97579.25;5090877;28;20231;-72
2022/04/18 08:17:03;;;;;;;8.70;4.70;;;;;;;19.05;25.52;97584.41;5090847;28;20466;-71
2022/04/18 08:19:29;;;;;;;7.40;5.00;;;;;;;19.11;25.31;97580.13;5091336;28;20427;-70
2022/04/18 08:21:55;;;;;;;7.10;4.50;;;;;;;19.29;25.76;97577.78;5093661;28;20571;-70
2022/04/18 08:24:21;;;;;;;5.10;4.20;;;;;;;19.40;24.84;97573.72;5084772;28;20222;-71
2022/04/18 08:26:47;;;;;;;5.67;4.60;;;;;;;19.30;24.88;97589.19;5088398;28;20847;-70
2022/04/18 08:29:13;;;;;;;6.30;4.20;;;;;;;19.49;24.99;97577.84;5094454;28;20262;-71
2022/04/18 08:31:38;;;;;;;3.97;3.50;;;;;;;19.72;25.07;97576.66;5094422;28;20424;-71
2022/04/18 08:34:04;;;;;;;8.83;4.10;;;;;;;19.53;24.08;97570.28;5093249;28;20211;-71
2022/04/18 08:36:29;;;;;;;5.20;4.20;;;;;;;19.73;24.14;97583.59;5073056;28;20272;-71
2022/04/18 08:38:55;;;;;;;4.50;3.40;;;;;;;19.88;23.90;97582.63;5074485;28;20205;-71
2022/04/18 08:41:22;;;;;;;5.40;4.37;;;;;;;19.86;23.71;97581.97;5068257;28;20217;-70
2022/04/18 08:43:49;;;;;;;3.93;3.53;;;;;;;19.74;23.91;97582.59;5065083;28;20230;-70
2022/04/18 08:46:15;;;;;;;5.30;4.30;;;;;;;19.88;23.98;97574.66;5080477;28;20435;-70
2022/04/18 08:54:10;;;;;;;4.87;3.80;;;;;;;19.90;24.57;97569.97;5078967;28;20443;-70
2022/04/18 08:56:36;;;;;;;8.60;3.50;;;;;;;20.03;23.91;97577.13;5087648;28;20489;-69
2022/04/18 08:59:02;;;;;;;8.30;4.10;;;;;;;19.48;23.63;97575.34;5088789;28;20942;-70
2022/04/18 09:01:27;;;;;;;4.63;3.37;;;;;;;19.90;24.61;97572.63;5091891;28;20181;-69
2022/04/18 09:03:54;;;;;;;6.13;3.90;;;;;;;19.90;23.47;97577.94;5093703;28;20796;-70
2022/04/18 09:06:24;;;;;;;5.23;3.77;;;;;;;19.42;23.66;97568.19;5093754;28;20656;-70
2022/04/18 09:08:56;;;;;;;4.37;3.67;;;;;;;19.63;24.47;97569.88;5093693;28;20508;-70
2022/04/18 09:11:33;;;;;;;6.53;3.60;;;;;;;19.73;23.50;97565.00;5093649;28;20430;-69
2022/04/18 09:14:11;;;;;;;5.23;3.27;;;;;;;19.89;23.54;97560.34;5093799;28;20439;-69
2022/04/18 09:16:37;;;;;;;3.90;3.60;;;;;;;19.98;22.49;97551.13;5093370;28;20496;-69
2022/04/18 09:19:09;;;;;;;5.43;3.57;;;;;;;19.68;22.87;97551.47;5091877;28;20462;-68
2022/04/18 09:21:59;;;;;;;4.70;3.63;;;;;;;19.82;24.21;97548.84;5093266;28;20466;-70
2022/04/18 09:24:34;;;;;;;6.27;4.23;;;;;;;20.22;23.73;97551.53;5079854;28;20446;-70
2022/04/18 09:27:13;;;;;;;4.70;3.97;;;;;;;20.53;23.29;97545.56;5066890;28;20855;-70
2022/04/18 09:29:40;;;;;;;4.67;4.00;;;;;;;20.34;22.93;97546.41;5073906;28;20423;-70
2022/04/18 09:32:07;;;;;;;6.23;4.40;;;;;;;20.51;22.33;97549.47;5090144;28;20923;-71
2022/04/18 09:34:33;;;;;;;6.27;4.40;;;;;;;20.55;22.17;97558.66;5091969;28;20450;-70
2022/04/18 09:37:21;;;;;;;4.07;3.67;;;;;;;20.02;22.41;97548.88;5093614;28;20546;-71
2022/04/18 09:39:54;;;;;;;5.17;4.30;;;;;;;19.80;22.78;97541.88;5086436;28;20706;-69
2022/04/18 09:42:25;;;;;;;6.80;4.30;;;;;;;20.26;22.80;97542.13;5093095;28;20431;-70
2022/04/18 09:44:50;;;;;;;7.63;4.47;;;;;;;20.82;22.83;97539.97;5092206;28;20492;-71
2022/04/18 09:47:17;;;;;;;7.87;3.93;;;;;;;20.53;22.29;97540.22;5091462;28;20423;-71
2022/04/18 09:49:42;;;;;;;5.87;4.20;;;;;;;20.82;21.28;97548.78;5086496;28;20536;-70
2022/04/18 09:52:21;;;;;;;4.00;3.57;;;;;;;21.22;21.52;97542.47;5092842;28;20511;-70
2022/04/18 09:54:51;;;;;;;6.83;3.60;;;;;;;21.04;21.28;97534.38;5092848;28;20239;-70
2022/04/18 09:57:22;;;;;;;4.83;4.00;;;;;;;21.13;21.88;97533.91;5085789;28;20512;-70
2022/04/18 09:59:48;;;;;;;7.67;3.20;;;;;;;21.48;22.80;97530.03;5079636;28;20432;-70
2022/04/18 10:02:15;;;;;;;6.73;3.33;;;;;;;21.88;21.80;97523.63;5092523;28;20435;-71
2022/04/18 10:04:40;;;;;;;6.77;3.50;;;;;;;21.98;20.57;97520.47;5091206;28;20473;-71
2022/04/18 10:07:06;;;;;;;4.43;3.83;;;;;;;21.76;20.32;97532.34;5091531;28;20420;-72
2022/04/18 10:09:32;;;;;;;3.90;3.50;;;;;;;21.93;20.58;97527.28;5066552;28;20664;-71
2022/04/18 10:11:58;;;;;;;3.93;3.53;;;;;;;22.16;20.74;97515.19;5091472;28;20272;-70
2022/04/18 10:14:23;;;;;;;6.13;4.13;;;;;;;21.86;20.51;97510.53;5091112;28;20208;-71
2022/04/18 10:16:49;;;;;;;4.00;3.60;;;;;;;21.69;20.89;97509.41;5091209;28;20583;-71
2022/04/18 10:19:33;;;;;;;4.70;3.83;;;;;;;21.72;21.75;97503.66;5091965;28;20190;-70
2022/04/18 10:22:07;;;;;;;4.30;3.90;;;;;;;21.66;21.00;97508.00;5086897;28;20177;-72
2022/04/18 10:25:05;;;;;;;4.40;3.90;;;;;;;21.74;21.69;97506.91;5074158;28;20483;-71
2022/04/18 10:27:55;;;;;;;8.73;4.60;;;;;;;21.54;20.47;97515.88;5071121;28;20831;-70
2022/04/18 10:30:21;;;;;;;5.97;4.60;;;;;;;21.73;20.76;97499.94;5090331;28;20422;-70
2022/04/18 10:32:48;;;;;;;4.53;4.00;;;;;;;22.14;20.86;97490.59;5087241;28;20974;-69
2022/04/18 10:35:14;;;;;;;4.33;3.93;;;;;;;21.98;20.35;97488.47;5091054;28;20531;-71
2022/04/18 10:37:43;;;;;;;6.03;4.20;;;;;;;21.79;20.12;97491.91;5090773;28;20466;-72
2022/04/18 10:40:09;;;;;;;7.37;3.70;;;;;;;22.19;20.33;97489.91;5083402;28;20931;-70
2022/04/18 10:42:35;;;;;;;4.73;3.90;;;;;;;22.37;20.01;97483.78;5090038;28;20426;-70
2022/04/18 10:45:17;;;;;;;3.97;3.57;;;;;;;22.81;20.80;97484.53;5092326;28;20491;-71
2022/04/18 10:47:58;;;;;;;4.33;3.70;;;;;;;22.18;19.46;97475.75;5075657;28;20426;-73
2022/04/18 10:50:33;;;;;;;4.57;3.37;;;;;;;22.20;20.06;97479.00;5069026;28;20432;-69
2022/04/18 10:53:05;;;;;;;5.00;3.60;;;;;;;22.29;20.04;97478.75;5086044;28;20454;-69
2022/04/18 10:55:30;;;;;;;3.80;3.17;;;;;;;22.00;20.22;97473.84;5086354;28;20436;-72
2022/04/18 10:58:15;;;;;;;5.23;3.53;;;;;;;22.16;19.94;97480.50;5091783;28;20478;-70
2022/04/18 11:00:50;;;;;;;4.27;3.87;;;;;;;22.31;19.99;97473.97;5088886;28;20185;-70
2022/04/18 11:03:37;;;;;;;5.13;3.50;;;;;;;22.37;19.73;97475.78;5069406;28;20456;-71
2022/04/18 11:06:05;;;;;;;5.93;4.10;;;;;;;22.65;20.08;97474.47;5078710;28;20872;-71
2022/04/18 11:08:30;;;;;;;3.40;3.10;;;;;;;23.04;20.22;97466.16;5090267;28;20428;-71
2022/04/18 11:11:03;;;;;;;5.03;4.53;;;;;;;22.69;19.96;97476.47;5056658;28;20431;-71
2022/04/18 11:13:32;;;;;;;6.13;3.40;;;;;;;22.95;19.80;97468.34;5091470;28;20229;-71
2022/04/18 11:16:24;;;;;;;5.63;3.80;;;;;;;23.00;19.40;97461.25;5075002;28;20441;-72
2022/04/18 11:19:15;;;;;;;4.13;3.63;;;;;;;23.07;19.66;97460.38;5046023;28;20476;-70
2022/04/18 11:21:59;;;;;;;5.83;3.93;;;;;;;23.25;19.54;97451.50;5069276;28;20449;-71
2022/04/18 11:24:37;;;;;;;4.07;3.47;;;;;;;23.52;19.19;97456.47;5063018;28;20492;-70
2022/04/18 11:27:06;;;;;;;4.43;3.50;;;;;;;23.80;19.35;97453.13;5083932;28;20435;-72
2022/04/18 11:29:32;;;;;;;6.83;3.70;;;;;;;23.96;18.74;97446.28;5074694;28;20444;-70
2022/04/18 11:31:58;;;;;;;3.93;3.53;;;;;;;23.65;18.59;97440.22;5055805;28;20432;-71
2022/04/18 11:34:28;;;;;;;4.90;3.50;;;;;;;23.87;18.82;97436.97;5080495;28;20451;-70
2022/04/18 11:36:58;;;;;;;3.60;3.23;;;;;;;23.86;18.67;97441.50;5074192;28;20202;-72
2022/04/18 11:39:24;;;;;;;4.53;3.50;;;;;;;24.01;19.29;97433.03;5088269;28;20461;-72
2022/04/18 11:42:02;;;;;;;4.10;3.20;;;;;;;23.83;18.59;97433.94;5075613;28;20439;-72
2022/04/18 11:44:27;;;;;;;3.87;3.50;;;;;;;23.97;18.70;97437.22;5059440;28;20233;-71
2022/04/18 11:46:53;;;;;;;3.73;3.40;;;;;;;24.13;18.68;97429.53;5058760;28;20439;-69
2022/04/18 11:49:25;;;;;;;4.60;3.80;;;;;;;24.45;18.15;97431.78;5078406;28;20201;-71
2022/04/18 11:51:51;;;;;;;5.83;3.67;;;;;;;24.67;17.75;97418.56;5077961;28;20809;-70
2022/04/18 11:54:16;;;;;;;9.17;6.30;;;;;;;24.88;18.34;97409.09;5064521;28;20459;-71
2022/04/18 11:56:42;;;;;;;5.47;3.53;;;;;;;24.67;17.79;97419.41;5089931;28;20553;-71